Terminal Aerodrome Forecast
Issued by NWS

Home | Current Version | Previous Version | Text Only | Print | Product List | Glossary On
Versions: 1 2 3 4 5 6 7 8 9 10 11 12 13 14 15 16 17 18 19 20 21 22
000
FTUS43 KAPX 192300
TAFPLN
TAF
KPLN 192327Z 2000/2024 11012KT P6SM BKN250
     FM200200 14006KT P6SM BKN250 WS010/15030KT
     FM200800 15008KT P6SM OVC070 WS015/17030KT
     FM201000 16008KT 4SM -RA OVC040 WS015/20030KT
     FM201400 16009KT 3SM -RA OVC025 WS015/21030KT
     FM201800 22010KT 2SM -RA OVC015=

USA.gov is the U.S. government's official web portal to all federal, state and local government web resources and services.